Duwamish, Washington
Current Conditions -  °F | °C
As of 11:41 AM on Thursday 27 Nov 2014 (Local Time) from KSEA Reporting Station
Broken Clouds Broken Clouds  
Wind Chill: 54°   Ceiling: 1200
Heat Index: 54°   Visibility: 10mi
Dew Point: 52°   Wind: 16mph
Humidity: 94%   Direction: 190°S
Pressure: 29.82"   Gusts: NA
Location:  47.4488°N, 122.28°W
Report Text: KSEA 271941Z 19014KT 10SM SCT008 BKN012 BKN030 12/11 A2982 RMK AO2 PK WND 21027/1903 RAE20 P0001
Loading
Personal Weather Stations






























Interactive Weather Map New forecast layout! Learn more

10-Day Weather Forecast

Advertisements
Track Severe Weather on mobile